sensor_id;sensor_type;location;lat;lon;timestamp;P1;durP1;ratioP1;P2;durP2;ratioP2
8232;SDS011;4157;48.074;9.952;2022-12-10T00:01:33;40.33;;;24.15;;
8232;SDS011;4157;48.074;9.952;2022-12-10T00:04:01;36.72;;;20.23;;
8232;SDS011;4157;48.074;9.952;2022-12-10T00:06:30;41.38;;;23.88;;
8232;SDS011;4157;48.074;9.952;2022-12-10T00:08:58;41.85;;;24.55;;
8232;SDS011;4157;48.074;9.952;2022-12-10T00:11:27;45.10;;;24.63;;
8232;SDS011;4157;48.074;9.952;2022-12-10T00:13:55;38.58;;;21.92;;
8232;SDS011;4157;48.074;9.952;2022-12-10T00:16:24;38.60;;;30.92;;
8232;SDS011;4157;48.074;9.952;2022-12-10T00:18:52;42.50;;;24.80;;
8232;SDS011;4157;48.074;9.952;2022-12-10T00:21:21;42.65;;;24.20;;
8232;SDS011;4157;48.074;9.952;2022-12-10T00:23:49;42.45;;;25.25;;
8232;SDS011;4157;48.074;9.952;2022-12-10T00:26:18;40.72;;;23.65;;
8232;SDS011;4157;48.074;9.952;2022-12-10T00:28:48;42.35;;;24.95;;
8232;SDS011;4157;48.074;9.952;2022-12-10T00:31:17;39.08;;;24.02;;
8232;SDS011;4157;48.074;9.952;2022-12-10T00:33:45;41.97;;;24.85;;
8232;SDS011;4157;48.074;9.952;2022-12-10T00:36:14;43.88;;;24.70;;
8232;SDS011;4157;48.074;9.952;2022-12-10T00:38:42;39.60;;;23.42;;
8232;SDS011;4157;48.074;9.952;2022-12-10T00:41:10;39.95;;;23.80;;
8232;SDS011;4157;48.074;9.952;2022-12-10T00:43:38;44.90;;;25.77;;
8232;SDS011;4157;48.074;9.952;2022-12-10T00:46:08;39.17;;;22.88;;
8232;SDS011;4157;48.074;9.952;2022-12-10T00:48:36;44.65;;;25.27;;
8232;SDS011;4157;48.074;9.952;2022-12-10T00:51:04;42.92;;;24.20;;
8232;SDS011;4157;48.074;9.952;2022-12-10T00:53:33;37.95;;;30.65;;
8232;SDS011;4157;48.074;9.952;2022-12-10T00:56:01;39.35;;;22.17;;
8232;SDS011;4157;48.074;9.952;2022-12-10T00:58:30;37.38;;;21.13;;
8232;SDS011;4157;48.074;9.952;2022-12-10T01:01:06;37.42;;;22.52;;
8232;SDS011;4157;48.074;9.952;2022-12-10T01:03:35;33.60;;;20.02;;
8232;SDS011;4157;48.074;9.952;2022-12-10T01:06:11;38.20;;;21.23;;
8232;SDS011;4157;48.074;9.952;2022-12-10T01:08:40;36.45;;;22.27;;
8232;SDS011;4157;48.074;9.952;2022-12-10T01:11:08;31.75;;;19.52;;
8232;SDS011;4157;48.074;9.952;2022-12-10T01:13:37;33.97;;;21.13;;
8232;SDS011;4157;48.074;9.952;2022-12-10T01:16:05;36.10;;;21.67;;
8232;SDS011;4157;48.074;9.952;2022-12-10T01:18:35;36.33;;;22.30;;
8232;SDS011;4157;48.074;9.952;2022-12-10T01:21:03;35.35;;;21.75;;
8232;SDS011;4157;48.074;9.952;2022-12-10T01:23:31;36.53;;;21.40;;
8232;SDS011;4157;48.074;9.952;2022-12-10T01:26:00;34.65;;;21.08;;
8232;SDS011;4157;48.074;9.952;2022-12-10T01:28:29;31.15;;;27.33;;
8232;SDS011;4157;48.074;9.952;2022-12-10T01:31:00;31.40;;;18.30;;
8232;SDS011;4157;48.074;9.952;2022-12-10T01:33:28;33.97;;;19.73;;
8232;SDS011;4157;48.074;9.952;2022-12-10T01:36:00;32.55;;;19.60;;
8232;SDS011;4157;48.074;9.952;2022-12-10T01:38:28;31.63;;;18.48;;
8232;SDS011;4157;48.074;9.952;2022-12-10T01:40:56;32.92;;;20.35;;
8232;SDS011;4157;48.074;9.952;2022-12-10T01:43:24;33.55;;;20.40;;
8232;SDS011;4157;48.074;9.952;2022-12-10T01:45:52;33.20;;;21.35;;
8232;SDS011;4157;48.074;9.952;2022-12-10T01:48:20;32.33;;;19.92;;
8232;SDS011;4157;48.074;9.952;2022-12-10T01:50:47;33.17;;;20.35;;
8232;SDS011;4157;48.074;9.952;2022-12-10T01:53:16;37.00;;;22.33;;
8232;SDS011;4157;48.074;9.952;2022-12-10T01:55:45;35.13;;;21.33;;
8232;SDS011;4157;48.074;9.952;2022-12-10T01:58:14;35.58;;;20.70;;
8232;SDS011;4157;48.074;9.952;2022-12-10T02:00:46;33.88;;;20.30;;
8232;SDS011;4157;48.074;9.952;2022-12-10T02:03:19;31.65;;;19.00;;
8232;SDS011;4157;48.074;9.952;2022-12-10T02:05:49;34.17;;;20.80;;
8232;SDS011;4157;48.074;9.952;2022-12-10T02:08:23;35.85;;;20.88;;
8232;SDS011;4157;48.074;9.952;2022-12-10T02:10:56;37.05;;;21.38;;
8232;SDS011;4157;48.074;9.952;2022-12-10T02:13:26;34.63;;;21.10;;
8232;SDS011;4157;48.074;9.952;2022-12-10T02:15:58;37.20;;;20.85;;
8232;SDS011;4157;48.074;9.952;2022-12-10T02:18:28;36.25;;;21.70;;
8232;SDS011;4157;48.074;9.952;2022-12-10T02:20:58;36.45;;;21.73;;
8232;SDS011;4157;48.074;9.952;2022-12-10T02:23:30;37.08;;;21.85;;
8232;SDS011;4157;48.074;9.952;2022-12-10T02:26:01;38.25;;;22.23;;
8232;SDS011;4157;48.074;9.952;2022-12-10T02:28:31;35.65;;;19.42;;
8232;SDS011;4157;48.074;9.952;2022-12-10T02:31:02;37.22;;;21.60;;
8232;SDS011;4157;48.074;9.952;2022-12-10T02:33:33;38.70;;;21.08;;
8232;SDS011;4157;48.074;9.952;2022-12-10T02:36:03;37.33;;;22.77;;
8232;SDS011;4157;48.074;9.952;2022-12-10T02:38:32;36.55;;;21.92;;
8232;SDS011;4157;48.074;9.952;2022-12-10T02:41:02;37.35;;;21.75;;
8232;SDS011;4157;48.074;9.952;2022-12-10T02:43:32;34.78;;;20.65;;
8232;SDS011;4157;48.074;9.952;2022-12-10T02:46:02;33.80;;;20.48;;
8232;SDS011;4157;48.074;9.952;2022-12-10T02:48:30;34.70;;;19.58;;
8232;SDS011;4157;48.074;9.952;2022-12-10T02:50:58;35.50;;;20.63;;
8232;SDS011;4157;48.074;9.952;2022-12-10T02:53:26;35.10;;;20.67;;
8232;SDS011;4157;48.074;9.952;2022-12-10T02:55:58;34.85;;;20.10;;
8232;SDS011;4157;48.074;9.952;2022-12-10T02:58:38;34.88;;;20.75;;
8232;SDS011;4157;48.074;9.952;2022-12-10T03:01:12;35.50;;;22.17;;
8232;SDS011;4157;48.074;9.952;2022-12-10T03:03:43;40.33;;;21.67;;
8232;SDS011;4157;48.074;9.952;2022-12-10T03:06:15;36.10;;;20.55;;
8232;SDS011;4157;48.074;9.952;2022-12-10T03:08:46;37.35;;;22.42;;
8232;SDS011;4157;48.074;9.952;2022-12-10T03:11:15;37.92;;;21.13;;
8232;SDS011;4157;48.074;9.952;2022-12-10T03:13:44;40.65;;;21.13;;
8232;SDS011;4157;48.074;9.952;2022-12-10T03:16:16;39.08;;;20.42;;
8232;SDS011;4157;48.074;9.952;2022-12-10T03:18:46;41.38;;;22.42;;
8232;SDS011;4157;48.074;9.952;2022-12-10T03:21:15;39.53;;;21.90;;
8232;SDS011;4157;48.074;9.952;2022-12-10T03:23:43;41.58;;;21.83;;
8232;SDS011;4157;48.074;9.952;2022-12-10T03:26:13;41.10;;;21.45;;
8232;SDS011;4157;48.074;9.952;2022-12-10T03:28:41;42.78;;;21.25;;
8232;SDS011;4157;48.074;9.952;2022-12-10T03:31:11;41.95;;;21.33;;
8232;SDS011;4157;48.074;9.952;2022-12-10T03:33:41;41.67;;;22.30;;
8232;SDS011;4157;48.074;9.952;2022-12-10T03:36:09;40.88;;;21.52;;
8232;SDS011;4157;48.074;9.952;2022-12-10T03:38:37;46.17;;;23.25;;
8232;SDS011;4157;48.074;9.952;2022-12-10T03:41:05;41.67;;;21.70;;
8232;SDS011;4157;48.074;9.952;2022-12-10T03:43:33;45.38;;;23.60;;
8232;SDS011;4157;48.074;9.952;2022-12-10T03:46:00;40.47;;;21.48;;
8232;SDS011;4157;48.074;9.952;2022-12-10T03:48:28;42.78;;;22.65;;
8232;SDS011;4157;48.074;9.952;2022-12-10T03:50:57;38.28;;;21.05;;
8232;SDS011;4157;48.074;9.952;2022-12-10T03:53:25;40.17;;;20.83;;
8232;SDS011;4157;48.074;9.952;2022-12-10T03:55:53;38.05;;;20.67;;
8232;SDS011;4157;48.074;9.952;2022-12-10T03:58:21;42.20;;;21.35;;
8232;SDS011;4157;48.074;9.952;2022-12-10T04:00:48;42.30;;;23.52;;
8232;SDS011;4157;48.074;9.952;2022-12-10T04:03:16;44.33;;;21.95;;
8232;SDS011;4157;48.074;9.952;2022-12-10T04:05:44;38.30;;;20.27;;
8232;SDS011;4157;48.074;9.952;2022-12-10T04:08:13;41.67;;;21.60;;
8232;SDS011;4157;48.074;9.952;2022-12-10T04:10:40;37.97;;;20.85;;
8232;SDS011;4157;48.074;9.952;2022-12-10T04:13:08;38.10;;;28.92;;
8232;SDS011;4157;48.074;9.952;2022-12-10T04:15:55;41.20;;;20.50;;
8232;SDS011;4157;48.074;9.952;2022-12-10T04:18:41;42.40;;;22.08;;
8232;SDS011;4157;48.074;9.952;2022-12-10T04:21:09;37.33;;;20.25;;
8232;SDS011;4157;48.074;9.952;2022-12-10T04:23:55;37.75;;;19.95;;
8232;SDS011;4157;48.074;9.952;2022-12-10T04:26:37;38.10;;;18.67;;
8232;SDS011;4157;48.074;9.952;2022-12-10T04:29:21;39.78;;;20.40;;
8232;SDS011;4157;48.074;9.952;2022-12-10T04:31:49;42.13;;;19.73;;
8232;SDS011;4157;48.074;9.952;2022-12-10T04:34:17;37.83;;;18.25;;
8232;SDS011;4157;48.074;9.952;2022-12-10T04:36:45;37.10;;;20.25;;
8232;SDS011;4157;48.074;9.952;2022-12-10T04:39:14;39.75;;;20.52;;
8232;SDS011;4157;48.074;9.952;2022-12-10T04:41:42;38.20;;;19.77;;
8232;SDS011;4157;48.074;9.952;2022-12-10T04:44:10;38.40;;;20.02;;
8232;SDS011;4157;48.074;9.952;2022-12-10T04:46:38;35.13;;;25.55;;
8232;SDS011;4157;48.074;9.952;2022-12-10T04:49:06;36.63;;;18.70;;
8232;SDS011;4157;48.074;9.952;2022-12-10T04:51:34;40.05;;;18.83;;
8232;SDS011;4157;48.074;9.952;2022-12-10T04:54:01;35.17;;;18.58;;
8232;SDS011;4157;48.074;9.952;2022-12-10T04:56:30;39.47;;;19.33;;
8232;SDS011;4157;48.074;9.952;2022-12-10T04:58:58;39.38;;;19.55;;
8232;SDS011;4157;48.074;9.952;2022-12-10T05:01:26;35.22;;;18.17;;
8232;SDS011;4157;48.074;9.952;2022-12-10T05:03:57;36.35;;;19.40;;
8232;SDS011;4157;48.074;9.952;2022-12-10T05:06:25;36.17;;;17.67;;
8232;SDS011;4157;48.074;9.952;2022-12-10T05:08:52;38.17;;;18.10;;
8232;SDS011;4157;48.074;9.952;2022-12-10T05:11:21;34.17;;;17.58;;
8232;SDS011;4157;48.074;9.952;2022-12-10T05:13:51;34.92;;;17.50;;
8232;SDS011;4157;48.074;9.952;2022-12-10T05:16:20;33.15;;;16.98;;
8232;SDS011;4157;48.074;9.952;2022-12-10T05:18:47;30.95;;;16.40;;
8232;SDS011;4157;48.074;9.952;2022-12-10T05:21:16;39.78;;;17.75;;
8232;SDS011;4157;48.074;9.952;2022-12-10T05:23:45;36.22;;;18.13;;
8232;SDS011;4157;48.074;9.952;2022-12-10T05:26:12;40.13;;;19.08;;
8232;SDS011;4157;48.074;9.952;2022-12-10T05:28:41;38.53;;;20.80;;
8232;SDS011;4157;48.074;9.952;2022-12-10T05:31:12;39.00;;;20.08;;
8232;SDS011;4157;48.074;9.952;2022-12-10T05:33:40;36.53;;;16.45;;
8232;SDS011;4157;48.074;9.952;2022-12-10T05:36:09;34.20;;;23.48;;
8232;SDS011;4157;48.074;9.952;2022-12-10T05:38:38;37.90;;;17.30;;
8232;SDS011;4157;48.074;9.952;2022-12-10T05:41:08;38.15;;;18.10;;
8232;SDS011;4157;48.074;9.952;2022-12-10T05:43:36;33.25;;;16.20;;
8232;SDS011;4157;48.074;9.952;2022-12-10T05:46:04;40.20;;;18.40;;
8232;SDS011;4157;48.074;9.952;2022-12-10T05:48:34;40.85;;;19.15;;
8232;SDS011;4157;48.074;9.952;2022-12-10T05:51:03;40.00;;;26.88;;
8232;SDS011;4157;48.074;9.952;2022-12-10T05:53:30;37.90;;;18.35;;
8232;SDS011;4157;48.074;9.952;2022-12-10T05:56:02;39.35;;;19.45;;
8232;SDS011;4157;48.074;9.952;2022-12-10T05:58:29;45.47;;;19.10;;
8232;SDS011;4157;48.074;9.952;2022-12-10T06:00:57;43.45;;;20.70;;
8232;SDS011;4157;48.074;9.952;2022-12-10T06:03:26;37.65;;;18.33;;
8232;SDS011;4157;48.074;9.952;2022-12-10T06:05:55;40.50;;;19.85;;
8232;SDS011;4157;48.074;9.952;2022-12-10T06:08:23;38.33;;;19.92;;
8232;SDS011;4157;48.074;9.952;2022-12-10T06:10:51;43.47;;;20.45;;
8232;SDS011;4157;48.074;9.952;2022-12-10T06:13:19;42.40;;;19.80;;
8232;SDS011;4157;48.074;9.952;2022-12-10T06:15:47;47.22;;;19.45;;
8232;SDS011;4157;48.074;9.952;2022-12-10T06:18:15;47.00;;;21.17;;
8232;SDS011;4157;48.074;9.952;2022-12-10T06:20:43;41.55;;;19.98;;
8232;SDS011;4157;48.074;9.952;2022-12-10T06:23:12;40.28;;;20.90;;
8232;SDS011;4157;48.074;9.952;2022-12-10T06:25:39;48.28;;;22.42;;
8232;SDS011;4157;48.074;9.952;2022-12-10T06:28:07;41.63;;;20.08;;
8232;SDS011;4157;48.074;9.952;2022-12-10T06:30:35;46.00;;;23.98;;
8232;SDS011;4157;48.074;9.952;2022-12-10T06:33:03;39.88;;;21.85;;
8232;SDS011;4157;48.074;9.952;2022-12-10T06:35:31;46.42;;;24.40;;
8232;SDS011;4157;48.074;9.952;2022-12-10T06:37:59;45.33;;;24.67;;
8232;SDS011;4157;48.074;9.952;2022-12-10T06:40:28;46.70;;;24.52;;
8232;SDS011;4157;48.074;9.952;2022-12-10T06:42:55;46.40;;;25.85;;
8232;SDS011;4157;48.074;9.952;2022-12-10T06:45:23;45.33;;;24.20;;
8232;SDS011;4157;48.074;9.952;2022-12-10T06:47:51;48.58;;;26.65;;
8232;SDS011;4157;48.074;9.952;2022-12-10T06:50:19;49.80;;;27.77;;
8232;SDS011;4157;48.074;9.952;2022-12-10T06:52:47;47.05;;;29.45;;
8232;SDS011;4157;48.074;9.952;2022-12-10T06:55:14;45.17;;;26.83;;
8232;SDS011;4157;48.074;9.952;2022-12-10T06:57:43;50.30;;;37.97;;
8232;SDS011;4157;48.074;9.952;2022-12-10T07:00:12;50.42;;;28.67;;
8232;SDS011;4157;48.074;9.952;2022-12-10T07:02:40;42.88;;;25.95;;
8232;SDS011;4157;48.074;9.952;2022-12-10T07:05:07;46.05;;;26.15;;
8232;SDS011;4157;48.074;9.952;2022-12-10T07:07:35;41.10;;;24.50;;
8232;SDS011;4157;48.074;9.952;2022-12-10T07:10:03;44.45;;;25.73;;
8232;SDS011;4157;48.074;9.952;2022-12-10T07:12:31;42.20;;;27.33;;
8232;SDS011;4157;48.074;9.952;2022-12-10T07:15:00;36.67;;;25.00;;
8232;SDS011;4157;48.074;9.952;2022-12-10T07:17:30;49.28;;;27.55;;
8232;SDS011;4157;48.074;9.952;2022-12-10T07:19:58;44.20;;;25.60;;
8232;SDS011;4157;48.074;9.952;2022-12-10T07:22:26;40.60;;;25.15;;
8232;SDS011;4157;48.074;9.952;2022-12-10T07:24:53;42.63;;;24.83;;
8232;SDS011;4157;48.074;9.952;2022-12-10T07:27:21;41.72;;;25.08;;
8232;SDS011;4157;48.074;9.952;2022-12-10T07:29:49;39.92;;;32.47;;
8232;SDS011;4157;48.074;9.952;2022-12-10T07:32:18;34.60;;;22.30;;
8232;SDS011;4157;48.074;9.952;2022-12-10T07:34:46;38.72;;;23.17;;
8232;SDS011;4157;48.074;9.952;2022-12-10T07:37:14;37.90;;;22.55;;
8232;SDS011;4157;48.074;9.952;2022-12-10T07:39:41;39.97;;;24.90;;
8232;SDS011;4157;48.074;9.952;2022-12-10T07:42:09;40.13;;;24.58;;
8232;SDS011;4157;48.074;9.952;2022-12-10T07:44:37;38.03;;;23.35;;
8232;SDS011;4157;48.074;9.952;2022-12-10T07:47:05;39.83;;;24.35;;
8232;SDS011;4157;48.074;9.952;2022-12-10T07:49:34;40.90;;;24.35;;
8232;SDS011;4157;48.074;9.952;2022-12-10T07:52:02;44.83;;;24.52;;
8232;SDS011;4157;48.074;9.952;2022-12-10T07:54:30;39.85;;;24.05;;
8232;SDS011;4157;48.074;9.952;2022-12-10T07:56:57;39.60;;;24.02;;
8232;SDS011;4157;48.074;9.952;2022-12-10T07:59:25;40.50;;;24.55;;
8232;SDS011;4157;48.074;9.952;2022-12-10T08:01:53;40.17;;;24.40;;
8232;SDS011;4157;48.074;9.952;2022-12-10T08:04:20;38.95;;;24.15;;
8232;SDS011;4157;48.074;9.952;2022-12-10T08:06:49;44.53;;;25.85;;
8232;SDS011;4157;48.074;9.952;2022-12-10T08:09:21;40.35;;;22.85;;
8232;SDS011;4157;48.074;9.952;2022-12-10T08:11:48;36.90;;;30.77;;
8232;SDS011;4157;48.074;9.952;2022-12-10T08:14:16;42.03;;;23.60;;
8232;SDS011;4157;48.074;9.952;2022-12-10T08:16:44;39.15;;;22.55;;
8232;SDS011;4157;48.074;9.952;2022-12-10T08:19:11;40.00;;;23.95;;
8232;SDS011;4157;48.074;9.952;2022-12-10T08:21:39;40.53;;;23.52;;
8232;SDS011;4157;48.074;9.952;2022-12-10T08:24:08;38.03;;;23.35;;
8232;SDS011;4157;48.074;9.952;2022-12-10T08:26:36;42.92;;;24.70;;
8232;SDS011;4157;48.074;9.952;2022-12-10T08:29:04;38.38;;;23.20;;
8232;SDS011;4157;48.074;9.952;2022-12-10T08:31:31;41.20;;;24.33;;
8232;SDS011;4157;48.074;9.952;2022-12-10T08:33:59;50.28;;;27.15;;
8232;SDS011;4157;48.074;9.952;2022-12-10T08:36:27;42.13;;;24.40;;
8232;SDS011;4157;48.074;9.952;2022-12-10T08:38:56;40.80;;;23.70;;
8232;SDS011;4157;48.074;9.952;2022-12-10T08:41:25;43.08;;;25.13;;
8232;SDS011;4157;48.074;9.952;2022-12-10T08:43:54;40.20;;;25.27;;
8232;SDS011;4157;48.074;9.952;2022-12-10T08:46:21;33.42;;;29.08;;
8232;SDS011;4157;48.074;9.952;2022-12-10T08:48:50;36.90;;;22.90;;
8232;SDS011;4157;48.074;9.952;2022-12-10T08:51:18;46.10;;;29.50;;
8232;SDS011;4157;48.074;9.952;2022-12-10T08:53:46;34.65;;;21.35;;
8232;SDS011;4157;48.074;9.952;2022-12-10T08:56:14;34.72;;;21.98;;
8232;SDS011;4157;48.074;9.952;2022-12-10T08:58:43;38.28;;;24.17;;
8232;SDS011;4157;48.074;9.952;2022-12-10T09:01:12;37.60;;;20.85;;
8232;SDS011;4157;48.074;9.952;2022-12-10T09:03:39;34.47;;;22.02;;
8232;SDS011;4157;48.074;9.952;2022-12-10T09:06:08;36.65;;;22.33;;
8232;SDS011;4157;48.074;9.952;2022-12-10T09:08:36;31.95;;;20.02;;
8232;SDS011;4157;48.074;9.952;2022-12-10T09:11:05;34.28;;;19.90;;
8232;SDS011;4157;48.074;9.952;2022-12-10T09:13:33;30.05;;;19.27;;
8232;SDS011;4157;48.074;9.952;2022-12-10T09:16:02;29.42;;;18.25;;
8232;SDS011;4157;48.074;9.952;2022-12-10T09:18:30;28.98;;;18.10;;
8232;SDS011;4157;48.074;9.952;2022-12-10T09:20:58;28.35;;;18.33;;
8232;SDS011;4157;48.074;9.952;2022-12-10T09:23:25;29.90;;;17.35;;
8232;SDS011;4157;48.074;9.952;2022-12-10T09:25:53;26.48;;;21.75;;
8232;SDS011;4157;48.074;9.952;2022-12-10T09:28:21;26.30;;;22.70;;
8232;SDS011;4157;48.074;9.952;2022-12-10T09:30:54;26.35;;;16.77;;
8232;SDS011;4157;48.074;9.952;2022-12-10T09:33:23;32.00;;;16.58;;
8232;SDS011;4157;48.074;9.952;2022-12-10T09:35:51;27.90;;;17.13;;
8232;SDS011;4157;48.074;9.952;2022-12-10T09:38:18;26.80;;;17.00;;
8232;SDS011;4157;48.074;9.952;2022-12-10T09:40:48;28.50;;;17.92;;
8232;SDS011;4157;48.074;9.952;2022-12-10T09:43:19;28.88;;;17.92;;
8232;SDS011;4157;48.074;9.952;2022-12-10T09:45:53;31.42;;;18.20;;
8232;SDS011;4157;48.074;9.952;2022-12-10T09:48:25;30.77;;;18.33;;
8232;SDS011;4157;48.074;9.952;2022-12-10T09:50:58;28.37;;;17.80;;
8232;SDS011;4157;48.074;9.952;2022-12-10T09:55:58;27.50;;;16.77;;
8232;SDS011;4157;48.074;9.952;2022-12-10T09:58:26;28.42;;;17.05;;
8232;SDS011;4157;48.074;9.952;2022-12-10T10:00:56;32.30;;;18.70;;
8232;SDS011;4157;48.074;9.952;2022-12-10T10:03:26;30.35;;;18.50;;
8232;SDS011;4157;48.074;9.952;2022-12-10T10:05:54;28.67;;;18.58;;
8232;SDS011;4157;48.074;9.952;2022-12-10T10:08:23;29.95;;;18.33;;
8232;SDS011;4157;48.074;9.952;2022-12-10T10:10:54;27.45;;;17.13;;
8232;SDS011;4157;48.074;9.952;2022-12-10T10:13:26;27.85;;;17.65;;
8232;SDS011;4157;48.074;9.952;2022-12-10T10:15:56;26.85;;;16.80;;
8232;SDS011;4157;48.074;9.952;2022-12-10T10:18:28;25.05;;;20.83;;
8232;SDS011;4157;48.074;9.952;2022-12-10T10:20:57;26.25;;;15.43;;
8232;SDS011;4157;48.074;9.952;2022-12-10T10:23:25;26.42;;;16.80;;
8232;SDS011;4157;48.074;9.952;2022-12-10T10:25:52;22.85;;;14.68;;
8232;SDS011;4157;48.074;9.952;2022-12-10T10:28:21;24.67;;;16.23;;
8232;SDS011;4157;48.074;9.952;2022-12-10T10:30:49;27.63;;;17.35;;
8232;SDS011;4157;48.074;9.952;2022-12-10T10:33:18;23.67;;;19.30;;
8232;SDS011;4157;48.074;9.952;2022-12-10T10:35:48;22.27;;;14.52;;
8232;SDS011;4157;48.074;9.952;2022-12-10T10:38:17;23.10;;;14.88;;
8232;SDS011;4157;48.074;9.952;2022-12-10T10:40:46;25.52;;;15.02;;
8232;SDS011;4157;48.074;9.952;2022-12-10T10:43:18;26.65;;;14.65;;
8232;SDS011;4157;48.074;9.952;2022-12-10T10:45:51;24.17;;;13.60;;
8232;SDS011;4157;48.074;9.952;2022-12-10T10:48:20;26.55;;;15.52;;
8232;SDS011;4157;48.074;9.952;2022-12-10T10:50:50;24.85;;;15.55;;
8232;SDS011;4157;48.074;9.952;2022-12-10T10:53:22;26.92;;;16.60;;
8232;SDS011;4157;48.074;9.952;2022-12-10T10:55:49;26.50;;;15.50;;
8232;SDS011;4157;48.074;9.952;2022-12-10T10:58:18;23.90;;;15.48;;
8232;SDS011;4157;48.074;9.952;2022-12-10T11:00:53;23.63;;;14.50;;
8232;SDS011;4157;48.074;9.952;2022-12-10T11:03:21;24.40;;;14.75;;
8232;SDS011;4157;48.074;9.952;2022-12-10T11:05:50;21.13;;;13.63;;
8232;SDS011;4157;48.074;9.952;2022-12-10T11:08:18;22.25;;;12.90;;
8232;SDS011;4157;48.074;9.952;2022-12-10T11:10:47;24.73;;;13.95;;
8232;SDS011;4157;48.074;9.952;2022-12-10T11:13:19;23.67;;;14.82;;
8232;SDS011;4157;48.074;9.952;2022-12-10T11:15:54;23.55;;;14.90;;
8232;SDS011;4157;48.074;9.952;2022-12-10T11:18:24;24.40;;;15.65;;
8232;SDS011;4157;48.074;9.952;2022-12-10T11:21:01;27.35;;;16.70;;
8232;SDS011;4157;48.074;9.952;2022-12-10T11:23:29;26.92;;;17.35;;
8232;SDS011;4157;48.074;9.952;2022-12-10T11:26:02;28.20;;;16.50;;
8232;SDS011;4157;48.074;9.952;2022-12-10T11:31:02;30.92;;;17.88;;
8232;SDS011;4157;48.074;9.952;2022-12-10T11:33:34;31.60;;;19.20;;
8232;SDS011;4157;48.074;9.952;2022-12-10T11:36:10;30.13;;;18.40;;
8232;SDS011;4157;48.074;9.952;2022-12-10T11:38:45;30.75;;;18.52;;
8232;SDS011;4157;48.074;9.952;2022-12-10T11:41:16;35.60;;;21.27;;
8232;SDS011;4157;48.074;9.952;2022-12-10T11:43:52;32.63;;;19.83;;
8232;SDS011;4157;48.074;9.952;2022-12-10T11:46:29;28.70;;;17.95;;
8232;SDS011;4157;48.074;9.952;2022-12-10T11:49:03;27.85;;;17.13;;
8232;SDS011;4157;48.074;9.952;2022-12-10T11:51:38;29.17;;;17.73;;
8232;SDS011;4157;48.074;9.952;2022-12-10T11:54:11;25.88;;;15.90;;
8232;SDS011;4157;48.074;9.952;2022-12-10T11:56:43;26.63;;;16.67;;
8232;SDS011;4157;48.074;9.952;2022-12-10T11:59:15;25.15;;;15.40;;
8232;SDS011;4157;48.074;9.952;2022-12-10T12:01:47;23.17;;;15.55;;
8232;SDS011;4157;48.074;9.952;2022-12-10T12:04:22;20.98;;;13.63;;
8232;SDS011;4157;48.074;9.952;2022-12-10T12:06:55;22.40;;;13.98;;
8232;SDS011;4157;48.074;9.952;2022-12-10T12:09:27;18.93;;;12.43;;
8232;SDS011;4157;48.074;9.952;2022-12-10T12:12:00;18.98;;;12.15;;
8232;SDS011;4157;48.074;9.952;2022-12-10T12:14:32;20.95;;;12.93;;
8232;SDS011;4157;48.074;9.952;2022-12-10T12:17:03;23.58;;;13.57;;
8232;SDS011;4157;48.074;9.952;2022-12-10T12:19:34;20.95;;;18.17;;
8232;SDS011;4157;48.074;9.952;2022-12-10T12:22:07;21.58;;;18.15;;
8232;SDS011;4157;48.074;9.952;2022-12-10T12:24:37;24.65;;;14.82;;
8232;SDS011;4157;48.074;9.952;2022-12-10T12:27:09;22.40;;;14.05;;
8232;SDS011;4157;48.074;9.952;2022-12-10T12:29:40;24.77;;;15.25;;
8232;SDS011;4157;48.074;9.952;2022-12-10T12:32:10;27.80;;;17.38;;
8232;SDS011;4157;48.074;9.952;2022-12-10T12:34:42;27.67;;;17.08;;
8232;SDS011;4157;48.074;9.952;2022-12-10T12:37:14;30.20;;;18.75;;
8232;SDS011;4157;48.074;9.952;2022-12-10T12:39:43;34.83;;;21.42;;
8232;SDS011;4157;48.074;9.952;2022-12-10T12:42:15;33.63;;;19.65;;
8232;SDS011;4157;48.074;9.952;2022-12-10T12:44:47;33.22;;;20.02;;
8232;SDS011;4157;48.074;9.952;2022-12-10T12:47:20;38.07;;;22.17;;
8232;SDS011;4157;48.074;9.952;2022-12-10T12:49:49;37.60;;;22.38;;
8232;SDS011;4157;48.074;9.952;2022-12-10T12:52:24;39.88;;;22.75;;
8232;SDS011;4157;48.074;9.952;2022-12-10T12:54:53;35.58;;;20.05;;
8232;SDS011;4157;48.074;9.952;2022-12-10T12:57:23;31.95;;;18.52;;
8232;SDS011;4157;48.074;9.952;2022-12-10T12:59:55;26.40;;;15.68;;
8232;SDS011;4157;48.074;9.952;2022-12-10T13:02:38;20.90;;;13.48;;
8232;SDS011;4157;48.074;9.952;2022-12-10T13:05:12;18.92;;;11.45;;
8232;SDS011;4157;48.074;9.952;2022-12-10T13:07:42;23.55;;;14.27;;
8232;SDS011;4157;48.074;9.952;2022-12-10T13:10:23;19.85;;;11.95;;
8232;SDS011;4157;48.074;9.952;2022-12-10T13:12:51;16.85;;;10.93;;
8232;SDS011;4157;48.074;9.952;2022-12-10T13:15:33;21.10;;;11.60;;
8232;SDS011;4157;48.074;9.952;2022-12-10T13:18:16;21.20;;;13.77;;
8232;SDS011;4157;48.074;9.952;2022-12-10T13:26:03;22.00;;;13.18;;
8232;SDS011;4157;48.074;9.952;2022-12-10T13:28:38;21.85;;;13.65;;
8232;SDS011;4157;48.074;9.952;2022-12-10T13:31:15;23.05;;;14.27;;
8232;SDS011;4157;48.074;9.952;2022-12-10T13:33:46;23.25;;;14.00;;
8232;SDS011;4157;48.074;9.952;2022-12-10T13:36:13;25.55;;;14.57;;
8232;SDS011;4157;48.074;9.952;2022-12-10T13:38:54;18.50;;;12.35;;
8232;SDS011;4157;48.074;9.952;2022-12-10T13:41:23;19.23;;;11.77;;
8232;SDS011;4157;48.074;9.952;2022-12-10T13:46:55;18.88;;;10.82;;
8232;SDS011;4157;48.074;9.952;2022-12-10T13:49:24;17.00;;;10.45;;
8232;SDS011;4157;48.074;9.952;2022-12-10T13:51:54;19.80;;;10.52;;
8232;SDS011;4157;48.074;9.952;2022-12-10T13:57:26;18.00;;;11.20;;
8232;SDS011;4157;48.074;9.952;2022-12-10T14:00:00;20.90;;;11.13;;
8232;SDS011;4157;48.074;9.952;2022-12-10T14:02:42;18.75;;;10.90;;
8232;SDS011;4157;48.074;9.952;2022-12-10T14:07:59;18.83;;;11.35;;
8232;SDS011;4157;48.074;9.952;2022-12-10T14:10:29;18.92;;;11.45;;
8232;SDS011;4157;48.074;9.952;2022-12-10T14:13:00;15.82;;;10.07;;
8232;SDS011;4157;48.074;9.952;2022-12-10T14:15:28;17.10;;;14.02;;
8232;SDS011;4157;48.074;9.952;2022-12-10T14:17:59;15.93;;;9.20;;
8232;SDS011;4157;48.074;9.952;2022-12-10T14:20:28;16.73;;;9.82;;
8232;SDS011;4157;48.074;9.952;2022-12-10T14:22:57;16.95;;;10.07;;
8232;SDS011;4157;48.074;9.952;2022-12-10T14:25:43;17.73;;;10.63;;
8232;SDS011;4157;48.074;9.952;2022-12-10T14:28:13;17.88;;;10.68;;
8232;SDS011;4157;48.074;9.952;2022-12-10T14:30:42;21.85;;;11.95;;
8232;SDS011;4157;48.074;9.952;2022-12-10T14:33:10;16.25;;;9.70;;
8232;SDS011;4157;48.074;9.952;2022-12-10T14:35:40;17.90;;;11.40;;
8232;SDS011;4157;48.074;9.952;2022-12-10T14:38:12;19.13;;;11.02;;
8232;SDS011;4157;48.074;9.952;2022-12-10T14:40:41;18.55;;;10.85;;
8232;SDS011;4157;48.074;9.952;2022-12-10T14:43:14;23.08;;;12.60;;
8232;SDS011;4157;48.074;9.952;2022-12-10T14:45:44;25.50;;;13.63;;
8232;SDS011;4157;48.074;9.952;2022-12-10T14:48:13;28.25;;;15.20;;
8232;SDS011;4157;48.074;9.952;2022-12-10T14:50:42;25.30;;;15.50;;
8232;SDS011;4157;48.074;9.952;2022-12-10T14:53:11;26.65;;;15.70;;
8232;SDS011;4157;48.074;9.952;2022-12-10T14:55:40;26.08;;;15.77;;
8232;SDS011;4157;48.074;9.952;2022-12-10T14:58:09;21.48;;;14.73;;
8232;SDS011;4157;48.074;9.952;2022-12-10T15:00:40;24.65;;;14.30;;
8232;SDS011;4157;48.074;9.952;2022-12-10T15:03:10;23.63;;;12.77;;
8232;SDS011;4157;48.074;9.952;2022-12-10T15:05:38;19.83;;;12.73;;
8232;SDS011;4157;48.074;9.952;2022-12-10T15:08:06;19.98;;;12.40;;
8232;SDS011;4157;48.074;9.952;2022-12-10T15:10:35;20.85;;;12.82;;
8232;SDS011;4157;48.074;9.952;2022-12-10T15:13:04;20.08;;;12.48;;
8232;SDS011;4157;48.074;9.952;2022-12-10T15:15:33;20.38;;;11.65;;
8232;SDS011;4157;48.074;9.952;2022-12-10T15:18:02;23.27;;;13.90;;
8232;SDS011;4157;48.074;9.952;2022-12-10T15:20:36;21.55;;;12.00;;
8232;SDS011;4157;48.074;9.952;2022-12-10T15:23:11;21.33;;;12.82;;